sensor_id;sensor_type;location;lat;lon;timestamp;P1;durP1;ratioP1;P2;durP2;ratioP2
54993;SDS011;40891;47.242;8.648;2023-01-09T00:00:06;13.00;;;9.13;;
54993;SDS011;40891;47.242;8.648;2023-01-09T00:02:33;13.57;;;9.47;;
54993;SDS011;40891;47.242;8.648;2023-01-09T00:04:58;11.63;;;6.87;;
54993;SDS011;40891;47.242;8.648;2023-01-09T00:07:24;9.93;;;6.63;;
54993;SDS011;40891;47.242;8.648;2023-01-09T00:09:49;11.07;;;7.13;;
54993;SDS011;40891;47.242;8.648;2023-01-09T00:12:14;9.50;;;7.00;;
54993;SDS011;40891;47.242;8.648;2023-01-09T00:14:40;12.27;;;6.60;;
54993;SDS011;40891;47.242;8.648;2023-01-09T00:17:05;10.40;;;6.50;;
54993;SDS011;40891;47.242;8.648;2023-01-09T00:19:30;8.97;;;6.27;;
54993;SDS011;40891;47.242;8.648;2023-01-09T00:21:56;12.23;;;8.43;;
54993;SDS011;40891;47.242;8.648;2023-01-09T00:24:21;15.73;;;10.63;;
54993;SDS011;40891;47.242;8.648;2023-01-09T00:26:46;16.37;;;10.77;;
54993;SDS011;40891;47.242;8.648;2023-01-09T00:29:12;15.87;;;10.57;;
54993;SDS011;40891;47.242;8.648;2023-01-09T00:31:37;16.77;;;10.60;;
54993;SDS011;40891;47.242;8.648;2023-01-09T00:34:06;17.53;;;11.33;;
54993;SDS011;40891;47.242;8.648;2023-01-09T00:36:34;16.87;;;11.30;;
54993;SDS011;40891;47.242;8.648;2023-01-09T00:38:59;15.87;;;11.30;;
54993;SDS011;40891;47.242;8.648;2023-01-09T00:41:36;17.17;;;11.90;;
54993;SDS011;40891;47.242;8.648;2023-01-09T00:44:10;16.77;;;11.07;;
54993;SDS011;40891;47.242;8.648;2023-01-09T00:46:43;19.03;;;11.27;;
54993;SDS011;40891;47.242;8.648;2023-01-09T00:49:10;19.67;;;11.27;;
54993;SDS011;40891;47.242;8.648;2023-01-09T00:51:37;19.10;;;11.00;;
54993;SDS011;40891;47.242;8.648;2023-01-09T00:54:05;15.47;;;11.30;;
54993;SDS011;40891;47.242;8.648;2023-01-09T00:56:30;15.97;;;11.50;;
54993;SDS011;40891;47.242;8.648;2023-01-09T00:58:59;15.97;;;11.43;;
54993;SDS011;40891;47.242;8.648;2023-01-09T01:01:25;16.77;;;11.60;;
54993;SDS011;40891;47.242;8.648;2023-01-09T01:03:50;15.37;;;10.40;;
54993;SDS011;40891;47.242;8.648;2023-01-09T01:06:16;16.63;;;10.97;;
54993;SDS011;40891;47.242;8.648;2023-01-09T01:09:00;16.07;;;11.50;;
54993;SDS011;40891;47.242;8.648;2023-01-09T01:11:25;16.97;;;11.73;;
54993;SDS011;40891;47.242;8.648;2023-01-09T01:13:50;16.63;;;11.10;;
54993;SDS011;40891;47.242;8.648;2023-01-09T01:16:16;17.00;;;11.60;;
54993;SDS011;40891;47.242;8.648;2023-01-09T01:18:42;18.40;;;11.50;;
54993;SDS011;40891;47.242;8.648;2023-01-09T01:21:08;15.13;;;10.90;;
54993;SDS011;40891;47.242;8.648;2023-01-09T01:23:35;14.27;;;9.27;;
54993;SDS011;40891;47.242;8.648;2023-01-09T01:26:09;14.57;;;9.67;;
54993;SDS011;40891;47.242;8.648;2023-01-09T01:28:36;17.60;;;11.03;;
54993;SDS011;40891;47.242;8.648;2023-01-09T01:31:01;14.63;;;9.73;;
54993;SDS011;40891;47.242;8.648;2023-01-09T01:33:27;14.33;;;10.13;;
54993;SDS011;40891;47.242;8.648;2023-01-09T01:36:03;13.43;;;7.87;;
54993;SDS011;40891;47.242;8.648;2023-01-09T01:38:30;17.63;;;9.97;;
54993;SDS011;40891;47.242;8.648;2023-01-09T01:40:56;13.17;;;9.40;;
54993;SDS011;40891;47.242;8.648;2023-01-09T01:43:22;15.87;;;10.80;;
54993;SDS011;40891;47.242;8.648;2023-01-09T01:45:48;15.10;;;9.53;;
54993;SDS011;40891;47.242;8.648;2023-01-09T01:48:26;13.33;;;9.40;;
54993;SDS011;40891;47.242;8.648;2023-01-09T01:50:58;16.37;;;10.33;;
54993;SDS011;40891;47.242;8.648;2023-01-09T01:53:32;15.73;;;10.07;;
54993;SDS011;40891;47.242;8.648;2023-01-09T01:56:22;14.13;;;9.77;;
54993;SDS011;40891;47.242;8.648;2023-01-09T01:58:57;12.53;;;8.97;;
54993;SDS011;40891;47.242;8.648;2023-01-09T02:01:27;11.70;;;8.37;;
54993;SDS011;40891;47.242;8.648;2023-01-09T02:03:54;4.40;;;3.23;;
54993;SDS011;40891;47.242;8.648;2023-01-09T02:06:21;3.07;;;2.40;;
54993;SDS011;40891;47.242;8.648;2023-01-09T02:08:47;0.43;;;0.40;;
54993;SDS011;40891;47.242;8.648;2023-01-09T02:11:13;0.20;;;0.20;;
54993;SDS011;40891;47.242;8.648;2023-01-09T02:13:41;0.60;;;0.47;;
54993;SDS011;40891;47.242;8.648;2023-01-09T02:22:11;0.30;;;0.30;;
54993;SDS011;40891;47.242;8.648;2023-01-09T02:25:02;0.40;;;0.30;;
54993;SDS011;40891;47.242;8.648;2023-01-09T02:27:46;0.20;;;0.20;;
54993;SDS011;40891;47.242;8.648;2023-01-09T02:30:24;0.20;;;0.20;;
54993;SDS011;40891;47.242;8.648;2023-01-09T02:33:09;1.57;;;0.30;;
54993;SDS011;40891;47.242;8.648;2023-01-09T02:41:16;0.20;;;0.20;;
54993;SDS011;40891;47.242;8.648;2023-01-09T02:43:47;0.30;;;0.20;;
54993;SDS011;40891;47.242;8.648;2023-01-09T02:46:19;0.30;;;0.30;;
54993;SDS011;40891;47.242;8.648;2023-01-09T02:48:47;0.20;;;0.20;;
54993;SDS011;40891;47.242;8.648;2023-01-09T02:51:20;0.20;;;0.20;;
54993;SDS011;40891;47.242;8.648;2023-01-09T02:59:31;0.53;;;0.53;;
54993;SDS011;40891;47.242;8.648;2023-01-09T03:02:13;0.27;;;0.20;;
54993;SDS011;40891;47.242;8.648;2023-01-09T03:07:47;0.20;;;0.20;;
54993;SDS011;40891;47.242;8.648;2023-01-09T03:10:17;0.20;;;0.20;;
54993;SDS011;40891;47.242;8.648;2023-01-09T03:12:46;0.40;;;0.30;;
54993;SDS011;40891;47.242;8.648;2023-01-09T03:15:16;0.10;;;0.10;;
54993;SDS011;40891;47.242;8.648;2023-01-09T03:17:45;0.83;;;0.20;;
54993;SDS011;40891;47.242;8.648;2023-01-09T03:20:12;0.10;;;0.10;;
54993;SDS011;40891;47.242;8.648;2023-01-09T03:22:54;0.10;;;0.10;;
54993;SDS011;40891;47.242;8.648;2023-01-09T03:25:20;0.20;;;0.20;;
54993;SDS011;40891;47.242;8.648;2023-01-09T03:27:46;0.10;;;0.10;;
54993;SDS011;40891;47.242;8.648;2023-01-09T03:30:12;0.20;;;0.20;;
54993;SDS011;40891;47.242;8.648;2023-01-09T03:32:37;0.10;;;0.10;;
54993;SDS011;40891;47.242;8.648;2023-01-09T03:35:03;0.20;;;0.20;;
54993;SDS011;40891;47.242;8.648;2023-01-09T03:37:28;0.20;;;0.20;;
54993;SDS011;40891;47.242;8.648;2023-01-09T03:39:54;0.20;;;0.20;;
54993;SDS011;40891;47.242;8.648;2023-01-09T03:42:19;0.30;;;0.20;;
54993;SDS011;40891;47.242;8.648;2023-01-09T03:44:44;0.10;;;0.10;;
54993;SDS011;40891;47.242;8.648;2023-01-09T03:47:09;0.10;;;0.10;;
54993;SDS011;40891;47.242;8.648;2023-01-09T03:49:35;0.67;;;0.30;;
54993;SDS011;40891;47.242;8.648;2023-01-09T03:52:00;0.20;;;0.20;;
54993;SDS011;40891;47.242;8.648;2023-01-09T03:54:25;0.20;;;0.20;;
54993;SDS011;40891;47.242;8.648;2023-01-09T03:56:51;0.20;;;0.20;;
54993;SDS011;40891;47.242;8.648;2023-01-09T03:59:16;0.20;;;0.20;;
54993;SDS011;40891;47.242;8.648;2023-01-09T04:01:41;0.60;;;0.20;;
54993;SDS011;40891;47.242;8.648;2023-01-09T04:04:07;0.20;;;0.20;;
54993;SDS011;40891;47.242;8.648;2023-01-09T04:06:32;0.47;;;0.30;;
54993;SDS011;40891;47.242;8.648;2023-01-09T04:08:58;0.10;;;0.10;;
54993;SDS011;40891;47.242;8.648;2023-01-09T04:11:23;0.20;;;0.20;;
54993;SDS011;40891;47.242;8.648;2023-01-09T04:13:48;0.20;;;0.20;;
54993;SDS011;40891;47.242;8.648;2023-01-09T04:16:14;0.33;;;0.33;;
54993;SDS011;40891;47.242;8.648;2023-01-09T04:18:39;0.20;;;0.20;;
54993;SDS011;40891;47.242;8.648;2023-01-09T04:21:04;0.20;;;0.20;;
54993;SDS011;40891;47.242;8.648;2023-01-09T04:23:30;0.10;;;0.10;;
54993;SDS011;40891;47.242;8.648;2023-01-09T04:25:55;0.30;;;0.30;;
54993;SDS011;40891;47.242;8.648;2023-01-09T04:28:21;0.30;;;0.20;;
54993;SDS011;40891;47.242;8.648;2023-01-09T04:30:46;0.30;;;0.30;;
54993;SDS011;40891;47.242;8.648;2023-01-09T04:33:11;0.20;;;0.20;;
54993;SDS011;40891;47.242;8.648;2023-01-09T04:35:36;0.77;;;0.20;;
54993;SDS011;40891;47.242;8.648;2023-01-09T04:38:02;0.20;;;0.20;;
54993;SDS011;40891;47.242;8.648;2023-01-09T04:40:27;0.20;;;0.20;;
54993;SDS011;40891;47.242;8.648;2023-01-09T04:42:53;0.93;;;0.30;;
54993;SDS011;40891;47.242;8.648;2023-01-09T04:45:18;0.20;;;0.20;;
54993;SDS011;40891;47.242;8.648;2023-01-09T04:47:43;0.53;;;0.20;;
54993;SDS011;40891;47.242;8.648;2023-01-09T04:50:10;0.20;;;0.20;;
54993;SDS011;40891;47.242;8.648;2023-01-09T04:52:36;0.20;;;0.20;;
54993;SDS011;40891;47.242;8.648;2023-01-09T04:55:02;0.23;;;0.23;;
54993;SDS011;40891;47.242;8.648;2023-01-09T04:57:29;0.90;;;0.40;;
54993;SDS011;40891;47.242;8.648;2023-01-09T04:59:54;0.37;;;0.20;;
54993;SDS011;40891;47.242;8.648;2023-01-09T05:02:19;0.23;;;0.20;;
54993;SDS011;40891;47.242;8.648;2023-01-09T05:04:45;0.23;;;0.20;;
54993;SDS011;40891;47.242;8.648;2023-01-09T05:07:10;1.90;;;0.20;;
54993;SDS011;40891;47.242;8.648;2023-01-09T05:09:35;0.20;;;0.20;;
54993;SDS011;40891;47.242;8.648;2023-01-09T05:12:01;0.10;;;0.10;;
54993;SDS011;40891;47.242;8.648;2023-01-09T05:14:27;0.23;;;0.23;;
54993;SDS011;40891;47.242;8.648;2023-01-09T05:16:52;0.40;;;0.20;;
54993;SDS011;40891;47.242;8.648;2023-01-09T05:19:17;0.33;;;0.23;;
54993;SDS011;40891;47.242;8.648;2023-01-09T05:21:45;0.20;;;0.20;;
54993;SDS011;40891;47.242;8.648;2023-01-09T05:24:10;0.13;;;0.13;;
54993;SDS011;40891;47.242;8.648;2023-01-09T05:26:36;0.80;;;0.17;;
54993;SDS011;40891;47.242;8.648;2023-01-09T05:29:01;0.30;;;0.30;;
54993;SDS011;40891;47.242;8.648;2023-01-09T05:31:26;0.30;;;0.30;;
54993;SDS011;40891;47.242;8.648;2023-01-09T05:33:52;1.20;;;0.30;;
54993;SDS011;40891;47.242;8.648;2023-01-09T05:36:18;1.33;;;0.20;;
54993;SDS011;40891;47.242;8.648;2023-01-09T05:38:43;0.63;;;0.30;;
54993;SDS011;40891;47.242;8.648;2023-01-09T05:41:09;0.20;;;0.20;;
54993;SDS011;40891;47.242;8.648;2023-01-09T05:43:34;0.40;;;0.30;;
54993;SDS011;40891;47.242;8.648;2023-01-09T05:46:00;0.20;;;0.20;;
54993;SDS011;40891;47.242;8.648;2023-01-09T05:48:25;1.27;;;0.30;;
54993;SDS011;40891;47.242;8.648;2023-01-09T05:50:50;0.20;;;0.20;;
54993;SDS011;40891;47.242;8.648;2023-01-09T05:53:16;0.50;;;0.40;;
54993;SDS011;40891;47.242;8.648;2023-01-09T05:55:41;0.73;;;0.37;;
54993;SDS011;40891;47.242;8.648;2023-01-09T05:58:07;0.30;;;0.27;;
54993;SDS011;40891;47.242;8.648;2023-01-09T06:00:32;0.87;;;0.40;;
54993;SDS011;40891;47.242;8.648;2023-01-09T06:02:58;0.30;;;0.30;;
54993;SDS011;40891;47.242;8.648;2023-01-09T06:05:23;1.03;;;0.40;;
54993;SDS011;40891;47.242;8.648;2023-01-09T06:07:48;0.53;;;0.30;;
54993;SDS011;40891;47.242;8.648;2023-01-09T06:10:14;1.33;;;0.40;;
54993;SDS011;40891;47.242;8.648;2023-01-09T06:12:40;1.33;;;0.30;;
54993;SDS011;40891;47.242;8.648;2023-01-09T06:15:08;1.20;;;0.40;;
54993;SDS011;40891;47.242;8.648;2023-01-09T06:17:34;0.53;;;0.40;;
54993;SDS011;40891;47.242;8.648;2023-01-09T06:19:59;0.73;;;0.50;;
54993;SDS011;40891;47.242;8.648;2023-01-09T06:22:25;0.90;;;0.30;;
54993;SDS011;40891;47.242;8.648;2023-01-09T06:24:50;0.60;;;0.30;;
54993;SDS011;40891;47.242;8.648;2023-01-09T06:27:15;0.33;;;0.30;;
54993;SDS011;40891;47.242;8.648;2023-01-09T06:29:41;1.90;;;0.50;;
54993;SDS011;40891;47.242;8.648;2023-01-09T06:32:06;1.20;;;0.50;;
54993;SDS011;40891;47.242;8.648;2023-01-09T06:34:32;1.47;;;0.57;;
54993;SDS011;40891;47.242;8.648;2023-01-09T06:36:57;0.97;;;0.40;;
54993;SDS011;40891;47.242;8.648;2023-01-09T06:39:22;1.50;;;0.43;;
54993;SDS011;40891;47.242;8.648;2023-01-09T06:41:48;0.70;;;0.50;;
54993;SDS011;40891;47.242;8.648;2023-01-09T06:44:13;0.80;;;0.37;;
54993;SDS011;40891;47.242;8.648;2023-01-09T06:46:38;0.77;;;0.40;;
54993;SDS011;40891;47.242;8.648;2023-01-09T06:49:04;2.80;;;0.57;;
54993;SDS011;40891;47.242;8.648;2023-01-09T06:51:29;1.10;;;0.50;;
54993;SDS011;40891;47.242;8.648;2023-01-09T06:53:55;4.20;;;0.63;;
54993;SDS011;40891;47.242;8.648;2023-01-09T06:56:20;1.20;;;0.50;;
54993;SDS011;40891;47.242;8.648;2023-01-09T06:58:46;0.90;;;0.53;;
54993;SDS011;40891;47.242;8.648;2023-01-09T07:01:11;2.97;;;0.60;;
54993;SDS011;40891;47.242;8.648;2023-01-09T07:03:37;1.90;;;0.40;;
54993;SDS011;40891;47.242;8.648;2023-01-09T07:06:02;0.97;;;0.40;;
54993;SDS011;40891;47.242;8.648;2023-01-09T07:08:28;1.13;;;0.70;;
54993;SDS011;40891;47.242;8.648;2023-01-09T07:10:53;1.00;;;0.53;;
54993;SDS011;40891;47.242;8.648;2023-01-09T07:13:18;1.80;;;0.73;;
54993;SDS011;40891;47.242;8.648;2023-01-09T07:15:44;2.70;;;0.50;;
54993;SDS011;40891;47.242;8.648;2023-01-09T07:18:09;0.50;;;0.50;;
54993;SDS011;40891;47.242;8.648;2023-01-09T07:20:34;2.37;;;0.43;;
54993;SDS011;40891;47.242;8.648;2023-01-09T07:23:00;1.30;;;0.50;;
54993;SDS011;40891;47.242;8.648;2023-01-09T07:25:25;0.70;;;0.40;;
54993;SDS011;40891;47.242;8.648;2023-01-09T07:27:50;1.10;;;0.40;;
54993;SDS011;40891;47.242;8.648;2023-01-09T07:30:16;1.10;;;0.47;;
54993;SDS011;40891;47.242;8.648;2023-01-09T07:32:41;0.60;;;0.50;;
54993;SDS011;40891;47.242;8.648;2023-01-09T07:35:07;0.40;;;0.30;;
54993;SDS011;40891;47.242;8.648;2023-01-09T07:37:33;2.73;;;0.40;;
54993;SDS011;40891;47.242;8.648;2023-01-09T07:39:59;1.43;;;0.50;;
54993;SDS011;40891;47.242;8.648;2023-01-09T07:42:24;1.20;;;0.43;;
54993;SDS011;40891;47.242;8.648;2023-01-09T07:44:50;3.43;;;0.50;;
54993;SDS011;40891;47.242;8.648;2023-01-09T07:47:15;1.80;;;0.53;;
54993;SDS011;40891;47.242;8.648;2023-01-09T07:49:41;1.23;;;0.50;;
54993;SDS011;40891;47.242;8.648;2023-01-09T07:52:06;4.13;;;0.50;;
54993;SDS011;40891;47.242;8.648;2023-01-09T07:54:31;0.97;;;0.50;;
54993;SDS011;40891;47.242;8.648;2023-01-09T07:56:57;0.80;;;0.57;;
54993;SDS011;40891;47.242;8.648;2023-01-09T07:59:22;4.30;;;0.70;;
54993;SDS011;40891;47.242;8.648;2023-01-09T08:01:47;1.77;;;0.80;;
54993;SDS011;40891;47.242;8.648;2023-01-09T08:04:13;2.67;;;0.80;;
54993;SDS011;40891;47.242;8.648;2023-01-09T08:06:38;2.47;;;1.10;;
54993;SDS011;40891;47.242;8.648;2023-01-09T08:09:04;2.13;;;0.70;;
54993;SDS011;40891;47.242;8.648;2023-01-09T08:11:29;0.93;;;0.53;;
54993;SDS011;40891;47.242;8.648;2023-01-09T08:13:56;2.97;;;0.70;;
54993;SDS011;40891;47.242;8.648;2023-01-09T08:16:21;0.67;;;0.50;;
54993;SDS011;40891;47.242;8.648;2023-01-09T08:18:46;2.60;;;0.60;;
54993;SDS011;40891;47.242;8.648;2023-01-09T08:21:12;1.87;;;0.80;;
54993;SDS011;40891;47.242;8.648;2023-01-09T08:23:38;1.33;;;0.80;;
54993;SDS011;40891;47.242;8.648;2023-01-09T08:26:04;1.20;;;0.63;;
54993;SDS011;40891;47.242;8.648;2023-01-09T08:28:30;1.10;;;0.70;;
54993;SDS011;40891;47.242;8.648;2023-01-09T08:30:55;2.70;;;0.60;;
54993;SDS011;40891;47.242;8.648;2023-01-09T08:33:20;3.90;;;0.70;;
54993;SDS011;40891;47.242;8.648;2023-01-09T08:35:46;4.33;;;0.90;;
54993;SDS011;40891;47.242;8.648;2023-01-09T08:38:11;0.73;;;0.70;;
54993;SDS011;40891;47.242;8.648;2023-01-09T08:40:37;6.50;;;2.43;;
54993;SDS011;40891;47.242;8.648;2023-01-09T08:43:02;5.63;;;2.13;;
54993;SDS011;40891;47.242;8.648;2023-01-09T08:45:46;10.00;;;3.07;;
54993;SDS011;40891;47.242;8.648;2023-01-09T08:48:30;4.03;;;1.50;;
54993;SDS011;40891;47.242;8.648;2023-01-09T08:50:56;3.30;;;0.80;;
54993;SDS011;40891;47.242;8.648;2023-01-09T08:53:21;0.60;;;0.50;;
54993;SDS011;40891;47.242;8.648;2023-01-09T08:55:46;0.40;;;0.40;;
54993;SDS011;40891;47.242;8.648;2023-01-09T08:58:12;0.60;;;0.43;;
54993;SDS011;40891;47.242;8.648;2023-01-09T09:00:37;0.73;;;0.47;;
54993;SDS011;40891;47.242;8.648;2023-01-09T09:03:03;0.60;;;0.40;;
54993;SDS011;40891;47.242;8.648;2023-01-09T09:05:29;1.07;;;0.43;;
54993;SDS011;40891;47.242;8.648;2023-01-09T09:07:55;0.80;;;0.50;;
54993;SDS011;40891;47.242;8.648;2023-01-09T09:10:22;1.27;;;0.70;;
54993;SDS011;40891;47.242;8.648;2023-01-09T09:12:49;1.13;;;0.63;;
54993;SDS011;40891;47.242;8.648;2023-01-09T09:15:16;0.70;;;0.60;;
54993;SDS011;40891;47.242;8.648;2023-01-09T09:17:52;1.00;;;0.47;;
54993;SDS011;40891;47.242;8.648;2023-01-09T09:20:19;1.20;;;0.53;;
54993;SDS011;40891;47.242;8.648;2023-01-09T09:22:46;1.67;;;0.67;;
54993;SDS011;40891;47.242;8.648;2023-01-09T09:25:13;0.80;;;0.53;;
54993;SDS011;40891;47.242;8.648;2023-01-09T09:27:39;2.00;;;0.40;;
54993;SDS011;40891;47.242;8.648;2023-01-09T09:30:04;3.03;;;0.40;;
54993;SDS011;40891;47.242;8.648;2023-01-09T09:32:31;1.17;;;0.50;;
54993;SDS011;40891;47.242;8.648;2023-01-09T09:34:56;1.53;;;0.50;;
54993;SDS011;40891;47.242;8.648;2023-01-09T09:37:22;1.77;;;0.70;;
54993;SDS011;40891;47.242;8.648;2023-01-09T09:39:48;0.93;;;0.40;;
54993;SDS011;40891;47.242;8.648;2023-01-09T09:53:41;1.30;;;0.70;;
54993;SDS011;40891;47.242;8.648;2023-01-09T09:56:13;0.87;;;0.50;;
54993;SDS011;40891;47.242;8.648;2023-01-09T10:01:14;1.60;;;0.70;;
54993;SDS011;40891;47.242;8.648;2023-01-09T10:03:45;1.40;;;0.60;;
54993;SDS011;40891;47.242;8.648;2023-01-09T10:06:15;0.93;;;0.60;;
54993;SDS011;40891;47.242;8.648;2023-01-09T10:11:51;2.73;;;0.70;;
54993;SDS011;40891;47.242;8.648;2023-01-09T10:14:23;2.30;;;0.80;;
54993;SDS011;40891;47.242;8.648;2023-01-09T10:40:21;1.85;;;0.90;;
54993;SDS011;40891;47.242;8.648;2023-01-09T10:43:03;1.38;;;0.80;;
54993;SDS011;40891;47.242;8.648;2023-01-09T10:45:41;0.73;;;0.55;;
54993;SDS011;40891;47.242;8.648;2023-01-09T10:51:19;1.80;;;0.75;;
54993;SDS011;40891;47.242;8.648;2023-01-09T10:53:48;3.15;;;0.85;;
54993;SDS011;40891;47.242;8.648;2023-01-09T10:56:25;1.25;;;0.60;;
54993;SDS011;40891;47.242;8.648;2023-01-09T10:58:54;2.53;;;0.85;;
54993;SDS011;40891;47.242;8.648;2023-01-09T11:01:24;1.95;;;0.70;;
54993;SDS011;40891;47.242;8.648;2023-01-09T11:03:51;1.25;;;0.60;;
54993;SDS011;40891;47.242;8.648;2023-01-09T11:06:20;2.50;;;0.80;;
54993;SDS011;40891;47.242;8.648;2023-01-09T11:08:50;2.97;;;0.75;;
54993;SDS011;40891;47.242;8.648;2023-01-09T11:11:38;0.85;;;0.60;;
54993;SDS011;40891;47.242;8.648;2023-01-09T11:14:13;0.60;;;0.40;;
54993;SDS011;40891;47.242;8.648;2023-01-09T11:16:50;1.35;;;0.50;;
54993;SDS011;40891;47.242;8.648;2023-01-09T11:19:21;0.25;;;0.25;;
54993;SDS011;40891;47.242;8.648;2023-01-09T11:21:47;0.70;;;0.40;;
54993;SDS011;40891;47.242;8.648;2023-01-09T11:26:45;0.45;;;0.40;;
54993;SDS011;40891;47.242;8.648;2023-01-09T11:29:13;2.42;;;0.40;;
54993;SDS011;40891;47.242;8.648;2023-01-09T11:31:39;2.92;;;0.55;;
54993;SDS011;40891;47.242;8.648;2023-01-09T11:34:14;1.98;;;0.70;;
54993;SDS011;40891;47.242;8.648;2023-01-09T11:36:44;2.63;;;0.70;;
54993;SDS011;40891;47.242;8.648;2023-01-09T11:39:24;1.67;;;0.70;;
54993;SDS011;40891;47.242;8.648;2023-01-09T11:41:53;0.75;;;0.40;;
54993;SDS011;40891;47.242;8.648;2023-01-09T11:44:22;1.42;;;0.50;;
54993;SDS011;40891;47.242;8.648;2023-01-09T11:46:48;1.08;;;0.57;;
54993;SDS011;40891;47.242;8.648;2023-01-09T11:51:40;3.00;;;0.60;;
54993;SDS011;40891;47.242;8.648;2023-01-09T11:56:49;4.27;;;1.33;;
54993;SDS011;40891;47.242;8.648;2023-01-09T11:59:18;2.83;;;1.00;;
54993;SDS011;40891;47.242;8.648;2023-01-09T12:04:41;3.17;;;1.30;;
54993;SDS011;40891;47.242;8.648;2023-01-09T12:12:47;0.77;;;0.50;;
54993;SDS011;40891;47.242;8.648;2023-01-09T12:21:06;1.70;;;0.60;;
54993;SDS011;40891;47.242;8.648;2023-01-09T12:23:59;0.77;;;0.40;;
54993;SDS011;40891;47.242;8.648;2023-01-09T12:31:44;1.77;;;0.60;;
54993;SDS011;40891;47.242;8.648;2023-01-09T12:42:51;0.77;;;0.40;;
54993;SDS011;40891;47.242;8.648;2023-01-09T12:48:22;3.23;;;0.40;;
54993;SDS011;40891;47.242;8.648;2023-01-09T12:51:05;0.30;;;0.30;;
54993;SDS011;40891;47.242;8.648;2023-01-09T12:53:42;0.50;;;0.43;;
54993;SDS011;40891;47.242;8.648;2023-01-09T12:56:16;1.80;;;0.40;;
54993;SDS011;40891;47.242;8.648;2023-01-09T12:58:48;0.80;;;0.47;;
54993;SDS011;40891;47.242;8.648;2023-01-09T13:01:35;0.50;;;0.40;;
54993;SDS011;40891;47.242;8.648;2023-01-09T13:06:54;0.47;;;0.40;;
54993;SDS011;40891;47.242;8.648;2023-01-09T13:09:28;2.63;;;0.57;;
54993;SDS011;40891;47.242;8.648;2023-01-09T13:12:11;2.20;;;0.50;;
54993;SDS011;40891;47.242;8.648;2023-01-09T13:14:43;0.80;;;0.50;;
54993;SDS011;40891;47.242;8.648;2023-01-09T13:17:15;1.57;;;0.50;;
54993;SDS011;40891;47.242;8.648;2023-01-09T13:19:44;2.70;;;0.57;;
54993;SDS011;40891;47.242;8.648;2023-01-09T13:22:10;2.27;;;0.50;;
54993;SDS011;40891;47.242;8.648;2023-01-09T13:24:58;2.10;;;0.50;;
54993;SDS011;40891;47.242;8.648;2023-01-09T13:27:30;2.53;;;0.60;;
54993;SDS011;40891;47.242;8.648;2023-01-09T13:35:17;1.60;;;0.53;;
54993;SDS011;40891;47.242;8.648;2023-01-09T13:37:42;3.40;;;0.73;;
54993;SDS011;40891;47.242;8.648;2023-01-09T13:42:50;1.50;;;0.57;;
54993;SDS011;40891;47.242;8.648;2023-01-09T13:45:20;4.10;;;0.50;;
54993;SDS011;40891;47.242;8.648;2023-01-09T13:50:39;1.20;;;0.43;;
54993;SDS011;40891;47.242;8.648;2023-01-09T13:58:21;2.47;;;1.20;;
54993;SDS011;40891;47.242;8.648;2023-01-09T14:00:51;4.07;;;0.40;;
54993;SDS011;40891;47.242;8.648;2023-01-09T14:08:12;2.10;;;0.40;;
54993;SDS011;40891;47.242;8.648;2023-01-09T14:13:11;4.20;;;0.70;;
54993;SDS011;40891;47.242;8.648;2023-01-09T14:15:41;5.50;;;0.50;;
54993;SDS011;40891;47.242;8.648;2023-01-09T14:18:25;1.23;;;0.40;;
54993;SDS011;40891;47.242;8.648;2023-01-09T14:21:02;0.90;;;0.40;;
54993;SDS011;40891;47.242;8.648;2023-01-09T14:25:56;3.63;;;0.70;;
54993;SDS011;40891;47.242;8.648;2023-01-09T14:28:23;3.10;;;0.80;;
54993;SDS011;40891;47.242;8.648;2023-01-09T14:35:45;3.00;;;0.30;;
54993;SDS011;40891;47.242;8.648;2023-01-09T14:46:31;1.07;;;0.33;;
54993;SDS011;40891;47.242;8.648;2023-01-09T14:51:51;1.20;;;0.40;;
54993;SDS011;40891;47.242;8.648;2023-01-09T14:54:26;0.50;;;0.30;;
54993;SDS011;40891;47.242;8.648;2023-01-09T14:56:55;2.53;;;0.60;;
54993;SDS011;40891;47.242;8.648;2023-01-09T14:59:21;0.40;;;0.37;;
54993;SDS011;40891;47.242;8.648;2023-01-09T15:01:47;1.90;;;0.50;;
54993;SDS011;40891;47.242;8.648;2023-01-09T15:04:34;0.30;;;0.30;;
54993;SDS011;40891;47.242;8.648;2023-01-09T15:07:04;2.00;;;0.40;;
54993;SDS011;40891;47.242;8.648;2023-01-09T15:12:12;4.13;;;0.60;;
54993;SDS011;40891;47.242;8.648;2023-01-09T15:14:43;1.63;;;0.27;;
54993;SDS011;40891;47.242;8.648;2023-01-09T15:17:18;1.43;;;0.57;;
54993;SDS011;40891;47.242;8.648;2023-01-09T15:19:55;3.63;;;0.50;;
54993;SDS011;40891;47.242;8.648;2023-01-09T15:24:53;1.63;;;0.50;;
54993;SDS011;40891;47.242;8.648;2023-01-09T15:27:19;1.70;;;0.40;;
54993;SDS011;40891;47.242;8.648;2023-01-09T15:29:48;0.87;;;0.50;;
54993;SDS011;40891;47.242;8.648;2023-01-09T15:32:16;2.23;;;0.57;;
54993;SDS011;40891;47.242;8.648;2023-01-09T15:34:48;3.20;;;0.83;;
54993;SDS011;40891;47.242;8.648;2023-01-09T15:37:47;3.07;;;0.60;;
54993;SDS011;40891;47.242;8.648;2023-01-09T15:40:06;0.93;;;0.50;;
54993;SDS011;40891;47.242;8.648;2023-01-09T15:42:45;1.90;;;0.50;;
54993;SDS011;40891;47.242;8.648;2023-01-09T15:45:27;2.37;;;0.50;;
54993;SDS011;40891;47.242;8.648;2023-01-09T15:47:53;1.27;;;0.40;;
54993;SDS011;40891;47.242;8.648;2023-01-09T15:50:21;1.70;;;0.53;;
54993;SDS011;40891;47.242;8.648;2023-01-09T15:52:51;0.50;;;0.33;;
54993;SDS011;40891;47.242;8.648;2023-01-09T15:55:22;3.23;;;0.60;;
54993;SDS011;40891;47.242;8.648;2023-01-09T15:57:51;0.97;;;0.43;;
54993;SDS011;40891;47.242;8.648;2023-01-09T16:03:00;1.80;;;0.50;;
54993;SDS011;40891;47.242;8.648;2023-01-09T16:05:45;0.30;;;0.30;;
54993;SDS011;40891;47.242;8.648;2023-01-09T16:08:21;1.40;;;0.57;;
54993;SDS011;40891;47.242;8.648;2023-01-09T16:10:53;0.93;;;0.40;;
54993;SDS011;40891;47.242;8.648;2023-01-09T16:13:21;1.60;;;0.40;;
54993;SDS011;40891;47.242;8.648;2023-01-09T16:15:49;2.40;;;0.60;;
54993;SDS011;40891;47.242;8.648;2023-01-09T16:18:20;3.47;;;0.70;;
54993;SDS011;40891;47.242;8.648;2023-01-09T16:20:47;2.90;;;0.73;;
54993;SDS011;40891;47.242;8.648;2023-01-09T16:23:20;3.03;;;0.80;;
54993;SDS011;40891;47.242;8.648;2023-01-09T16:26:01;1.63;;;0.70;;
54993;SDS011;40891;47.242;8.648;2023-01-09T16:28:30;1.73;;;0.80;;
54993;SDS011;40891;47.242;8.648;2023-01-09T16:33:27;1.90;;;0.50;;
54993;SDS011;40891;47.242;8.648;2023-01-09T16:35:54;0.70;;;0.50;;
54993;SDS011;40891;47.242;8.648;2023-01-09T16:38:20;1.90;;;0.80;;
54993;SDS011;40891;47.242;8.648;2023-01-09T16:41:06;1.23;;;0.90;;
54993;SDS011;40891;47.242;8.648;2023-01-09T16:43:56;1.13;;;0.43;;
54993;SDS011;40891;47.242;8.648;2023-01-09T16:46:21;2.23;;;0.60;;
54993;SDS011;40891;47.242;8.648;2023-01-09T16:48:47;2.77;;;1.00;;
54993;SDS011;40891;47.242;8.648;2023-01-09T16:51:14;1.27;;;0.60;;
54993;SDS011;40891;47.242;8.648;2023-01-09T16:53:41;3.23;;;0.60;;
54993;SDS011;40891;47.242;8.648;2023-01-09T16:56:08;1.37;;;0.60;;
54993;SDS011;40891;47.242;8.648;2023-01-09T16:58:38;1.53;;;0.70;;
54993;SDS011;40891;47.242;8.648;2023-01-09T17:01:04;1.17;;;0.70;;
54993;SDS011;40891;47.242;8.648;2023-01-09T17:03:30;2.17;;;1.30;;
54993;SDS011;40891;47.242;8.648;2023-01-09T17:05:57;1.33;;;0.60;;
54993;SDS011;40891;47.242;8.648;2023-01-09T17:08:25;1.50;;;0.70;;
54993;SDS011;40891;47.242;8.648;2023-01-09T17:10:54;6.30;;;0.80;;
54993;SDS011;40891;47.242;8.648;2023-01-09T17:13:21;2.03;;;0.70;;
54993;SDS011;40891;47.242;8.648;2023-01-09T17:15:47;2.37;;;0.60;;
54993;SDS011;40891;47.242;8.648;2023-01-09T17:18:17;4.23;;;0.70;;
54993;SDS011;40891;47.242;8.648;2023-01-09T17:20:45;2.10;;;0.70;;
54993;SDS011;40891;47.242;8.648;2023-01-09T17:23:12;3.60;;;1.10;;
54993;SDS011;40891;47.242;8.648;2023-01-09T17:25:37;1.17;;;0.70;;
54993;SDS011;40891;47.242;8.648;2023-01-09T17:28:22;1.70;;;0.80;;
54993;SDS011;40891;47.242;8.648;2023-01-09T17:31:00;1.30;;;0.67;;